Leesburg, Indiana
Current Conditions -  °F | °C
As of 7:35 PM on Friday 31 Oct 2014 (Local Time) from KASW Reporting Station
Overcast Overcast  
Wind Chill: 23°   Ceiling: 2000
Heat Index: 34°   Visibility: 10mi
Dew Point: 32°   Wind: 17mph
Humidity: 93%   Direction: 360°N
Pressure: 30.13"   Gusts: 25mph
Location:  41.33°N, 85.85°W
Report Text: KASW 312335Z AUTO 36015G22KT 10SM OVC020 01/00 A3013 RMK AO2
Loading
Personal Weather Stations






























Interactive Weather Map
Tropical Storm Tracking
New forecast layout! Learn more

10-Day Weather Forecast

Advertisements
Track Severe Weather on mobile